ADDS METAR Data INFO
IDs: Format: Raw Decoded Include TAF

Data at: 1603 UTC 12 Dec 2017

KHSP 121555Z AUTO 28021G30KT 10SM OVC014 00/M04 A2954 RMK AO2 T00001045
KHSP 121535Z AUTO 28023G31KT 10SM OVC014 00/M04 A2955 RMK AO2 T10011043
KHSP 121515Z AUTO 28019G31KT 10SM OVC014 00/M04 A2956 RMK AO2 T10011042
KHSP 121455Z AUTO 29018G25KT 10SM OVC016 00/M04 A2956 RMK AO2 T00001044
KHSP 121435Z AUTO 29018G28KT 10SM OVC018 00/M05 A2956 RMK AO2 T00001048
KHSP 121415Z AUTO 28017G30KT 10SM OVC020 00/M05 A2956 RMK AO2 T00011050
KHSP 121355Z AUTO 28017G27KT 10SM OVC020 00/M05 A2956 RMK AO2 T00011052
KHSP 121335Z AUTO 28018G26KT 10SM OVC024 00/M05 A2957 RMK AO2 T00021055
KHSP 121315Z AUTO 28017G27KT 10SM BKN028 OVC034 00/M05 A2957 RMK AO2 T00031055
KHSP 121255Z AUTO 28018G25KT 10SM BKN022 BKN027 OVC035 00/M05 A2957 RMK AO2 T00031052
KHSP 121235Z AUTO 27021G29KT 10SM OVC022 01/M05 A2956 RMK AO2 T00061047
KHSP 121215Z AUTO 28019G24KT 10SM OVC022 01/M04 A2956 RMK AO2 T00081045
KHSP 121155Z AUTO 27016G26KT 10SM BKN024 OVC032 01/M04 A2956 RMK AO2 T00121045 10040 20012
KHSP 121135Z AUTO 28021G26KT 10SM OVC032 02/M04 A2955 RMK AO2 T00171044
KHSP 121115Z AUTO 28015G29KT 10SM SCT032 BKN038 02/M04 A2955 RMK AO2 T00221044
KHSP 121055Z AUTO 26021G26KT 10SM SCT036 03/M04 A2956 RMK AO2 T00251043
KHSP 121035Z AUTO 26017G23KT 10SM BKN036 03/M04 A2957 RMK AO2 T00261042
KHSP 121015Z AUTO 26018G23KT 10SM OVC036 03/M04 A2957 RMK AO2 T00311043
KHSP 120955Z AUTO 26016G25KT 10SM OVC040 04/M04 A2958 RMK AO2 T00351045
KHSP 120935Z AUTO 25014G21KT 10SM SCT036 BKN043 04/M04 A2959 RMK AO2 T00351045
KHSP 120915Z AUTO 26016G21KT 10SM OVC036 04/M05 A2960 RMK AO2 T00371046
KHSP 120855Z AUTO 25015G21KT 10SM OVC036 04/M05 A2962 RMK AO2 T00381046
KHSP 120835Z AUTO 25016KT 10SM SCT038 03/M05 A2963 RMK AO2 T00341048
KHSP 120815Z AUTO 25015G20KT 10SM CLR 04/M05 A2963 RMK AO2 T00351050
KHSP 120755Z AUTO 25015KT 10SM CLR 03/M05 A2964 RMK AO2 T00341050
KHSP 120735Z AUTO 25016KT 10SM CLR 04/M05 A2966 RMK AO2 T00361050
KHSP 120715Z AUTO 26015G24KT 10SM CLR 04/M05 A2966 RMK AO2 T00381050
KHSP 120655Z AUTO 25016G23KT 10SM CLR 04/M05 A2967 RMK AO2 T00371048
KHSP 120635Z AUTO 25016G20KT 10SM CLR 04/M05 A2967 RMK AO2 T00381046
KHSP 120615Z AUTO 25016KT 10SM CLR 04/M04 A2969 RMK AO2 T00381045
KHSP 120555Z AUTO 25015G20KT 10SM CLR 04/M04 A2969 RMK AO2 T00351044 10043 20016
KHSP 120535Z AUTO 24011KT 10SM SCT120 03/M04 A2971 RMK AO2 T00341044
KHSP 120515Z AUTO 24011KT 10SM OVC120 03/M04 A2972 RMK AO2 T00331043
KHSP 120455Z AUTO 24010KT 10SM BKN120 04/M04 A2973 RMK AO2 T00351044 400431034
KHSP 120435Z AUTO 24012KT 10SM SCT110 04/M05 A2974 RMK AO2 T00381046
KHSP 120415Z AUTO 23013G19KT 10SM SCT120 04/M05 A2975 RMK AO2 T00401048
KHSP 120355Z AUTO 24011G16KT 10SM BKN120 04/M05 A2975 RMK AO2 T00401051
KHSP 120335Z AUTO 22009G14KT 10SM BKN120 04/M05 A2976 RMK AO2 T00371052
KHSP 120315Z AUTO 21008KT 10SM SCT120 03/M05 A2977 RMK AO2 T00311053
KHSP 120255Z AUTO 20009KT 10SM SCT120 03/M05 A2978 RMK AO2 T00281053
KHSP 120235Z AUTO 20009G14KT 10SM CLR 03/M05 A2978 RMK AO2 T00251052
KHSP 120215Z AUTO 20009KT 10SM CLR 02/M05 A2980 RMK AO2 T00211052
KHSP 120156Z AUTO 20009KT 10SM CLR 02/M06 A2980 RMK AO2
KHSP 120135Z AUTO 19010G14KT 10SM CLR 02/M05 A2981 RMK AO2 T00171054
KHSP 120115Z AUTO 20008KT 10SM CLR 02/M05 A2982 RMK AO2 T00191055
KHSP 120055Z AUTO 20009G14KT 10SM CLR 02/M05 A2982 RMK AO2 T00171052
KHSP 120035Z AUTO 19013KT 10SM CLR 02/M05 A2982 RMK AO2 T00181053
KHSP 120015Z AUTO 19009KT 10SM CLR 02/M05 A2983 RMK AO2 T00201055
KHSP 112355Z AUTO 19011G15KT 10SM CLR 02/M05 A2983 RMK AO2 T00221054 10040 20010
KHSP 112335Z AUTO 19009G14KT 10SM CLR 02/M05 A2984 RMK AO2 T00221053
KHSP 112315Z AUTO 19010G14KT 10SM CLR 02/M05 A2984 RMK AO2 T00231052
KHSP 112255Z AUTO 19009KT 10SM CLR 02/M05 A2985 RMK AO2 T00211054
KHSP 112235Z AUTO 19008KT 10SM CLR 02/M06 A2985 RMK AO2 T00221060
KHSP 112215Z AUTO 19006KT 10SM CLR 03/M07 A2986 RMK AO2 T00271066
KHSP 112155Z AUTO 20007KT 10SM CLR 03/M07 A2987 RMK AO2 T00311070
KHSP 112135Z AUTO 22005KT 10SM CLR 03/M06 A2987 RMK AO2 T00321065
KHSP 112115Z AUTO 22006KT 10SM SCT065 04/M07 A2987 RMK AO2 T00381069
KHSP 112055Z AUTO 23005KT 10SM BKN065 04/M06 A2987 RMK AO2 T00371065
KHSP 112035Z AUTO 24006KT 10SM BKN065 04/M06 A2989 RMK AO2 T00351062
KHSP 112015Z AUTO 26006KT 10SM SCT070 SCT075 03/M07 A2989 RMK AO2 T00311066
KHSP 111955Z AUTO 26008KT 10SM BKN070 03/M07 A2990 RMK AO2 T00331066
KHSP 111935Z AUTO 26007KT 10SM BKN070 03/M06 A2990 RMK AO2 T00271065
KHSP 111915Z AUTO 27012KT 10SM SCT110 03/M07 A2990 RMK AO2 T00261069
KHSP 111855Z AUTO 27015G21KT 10SM BKN110 03/M07 A2991 RMK AO2 T00251066
KHSP 111835Z AUTO 28010G16KT 10SM BKN110 02/M07 A2991 RMK AO2 T00161069
KHSP 111815Z AUTO 29012KT 10SM CLR 02/M07 A2991 RMK AO2 T00171069
KHSP 111755Z AUTO 28012KT 10SM CLR 01/M07 A2991 RMK AO2 T00101070 10010 21034
KHSP 111735Z AUTO 29015G22KT 10SM CLR 01/M07 A2992 RMK AO2 T00061070
KHSP 111715Z AUTO 29014KT 10SM CLR 00/M07 A2993 RMK AO2 T00031067
KHSP 111655Z AUTO 27015KT 10SM CLR 00/M07 A2994 RMK AO2 T10011066
KHSP 111635Z AUTO 26012KT 10SM CLR 00/M06 A2997 RMK AO2 T10051065
KHSP 111615Z AUTO 25010KT 10SM CLR M01/M06 A2999 RMK AO2 T10081065
KHSP 111555Z AUTO 26011KT 10SM CLR M01/M06 A2999 RMK AO2 T10121065
KHSP 111535Z AUTO 27008KT 10SM CLR M02/M07 A2999 RMK AO2 T10171066
KHSP 111515Z AUTO 26008KT 10SM CLR M02/M07 A2998 RMK AO2 T10201066
KHSP 111455Z AUTO 25008KT 10SM CLR M02/M07 A2998 RMK AO2 T10231067
KHSP 111435Z AUTO 27009KT 10SM CLR M02/M07 A2998 RMK AO2 T10251067
KHSP 111415Z AUTO 27012KT 10SM CLR M03/M07 A2997 RMK AO2 T10261070
KHSP 111355Z AUTO 28010KT 10SM CLR M03/M07 A2996 RMK AO2 T10281070
KHSP 111335Z AUTO 28013KT 10SM CLR M03/M07 A2995 RMK AO2 T10291071
KHSP 111315Z AUTO 26007KT 10SM CLR M03/M07 A2995 RMK AO2 T10321073
KHSP 111255Z AUTO 28013KT 10SM CLR M03/M07 A2994 RMK AO2 T10311073
KHSP 111235Z AUTO 28014G19KT 10SM CLR M03/M07 A2993 RMK AO2 T10321072
KHSP 111215Z AUTO 28010G18KT 10SM CLR M03/M07 A2992 RMK AO2 T10321073
KHSP 111155Z AUTO 29012G19KT 10SM CLR M03/M07 A2992 RMK AO2 T10301073 11019 21030
KHSP 111135Z AUTO 28017G24KT 10SM SCT018 M03/M07 A2991 RMK AO2 T10271072
KHSP 111115Z AUTO 29015G23KT 10SM BKN018 M03/M07 A2991 RMK AO2 T10261073
KHSP 111055Z AUTO 29020G28KT 10SM SCT020 M02/M07 A2990 RMK AO2 T10251073
KHSP 111035Z AUTO 28018G23KT 10SM BKN020 M02/M07 A2990 RMK AO2 T10251075
KHSP 111015Z AUTO 28019G30KT 10SM BKN022 BKN029 M02/M07 A2989 RMK AO2 T10231075
KHSP 110955Z AUTO 28019G27KT 10SM OVC022 M02/M08 A2989 RMK AO2 T10221076
KHSP 110935Z AUTO 28024G32KT 10SM OVC024 M02/M08 A2988 RMK AO2 T10201077
KHSP 110915Z AUTO 28018G29KT 10SM OVC024 M02/M08 A2989 RMK AO2 T10201080
KHSP 110855Z AUTO 29017G23KT 10SM OVC024 M02/M08 A2990 RMK AO2 T10211082
KHSP 110835Z AUTO 28018G24KT 10SM OVC026 M02/M08 A2990 RMK AO2 T10211085
KHSP 110815Z AUTO 28017G22KT 10SM OVC026 M02/M09 A2990 RMK AO2 T10201087
KHSP 110755Z AUTO 28017G25KT 10SM OVC026 M02/M09 A2990 RMK AO2 T10201090
KHSP 110735Z AUTO 28019G25KT 10SM OVC028 M02/M09 A2989 RMK AO2 T10211092
KHSP 110715Z AUTO 28019G25KT 10SM OVC028 M02/M09 A2989 RMK AO2 T10221095
KHSP 110655Z AUTO 28017G24KT 10SM OVC028 M02/M10 A2989 RMK AO2 T10221097
KHSP 110635Z AUTO 28019G25KT 10SM OVC028 M02/M10 A2989 RMK AO2 T10221100
KHSP 110615Z AUTO 28018G26KT 10SM OVC028 M02/M10 A2989 RMK AO2 T10211100
KHSP 110555Z AUTO 28018G25KT 10SM OVC028 M02/M10 A2990 RMK AO2 T10221103 11022 21035
KHSP 110535Z AUTO 28016G26KT 10SM OVC028 M02/M11 A2990 RMK AO2 T10231106
KHSP 110515Z AUTO 28018G26KT 10SM OVC030 M02/M11 A2990 RMK AO2 T10251110
KHSP 110455Z AUTO 28020G25KT 10SM BKN032 OVC120 M03/M11 A2991 RMK AO2 T10261113 410251070
KHSP 110435Z AUTO 27019G24KT 10SM BKN120 M03/M12 A2992 RMK AO2 T10261116
KHSP 110415Z AUTO 27018G28KT 10SM BKN120 M02/M12 A2992 RMK AO2 T10251118